Time;durP1;ratioP1;P1;durP2;ratioP2;P2;SDS_P1;SDS_P2;PMS_P1;PMS_P2;Temp;Humidity;BMP_temperature;BMP_pressure;BME280_temperature;BME280_humidity;BME280_pressure;Samples;Min_cycle;Max_cycle;Signal;HPM_P1;HPM_P2
2021/08/11 00:01:35;;;;;;;;;;;;;;;;;;;;;
2021/08/11 00:04:17;;;;;;;;;26.75;22.75;;;;;22.24;60.37;101441.44;4959004;28;74553;-95
2021/08/11 00:07:46;;;;;;;;;23.25;23.25;;;;;22.24;61.61;101447.72;4988611;28;44844;-94
2021/08/11 00:10:59;;;;;;;;;30.00;30.00;;;;;21.98;60.77;101415.91;4981692;28;44635;-94
2021/08/11 00:14:11;;;;;;;;;29.75;29.75;;;;;21.93;61.85;101408.25;4986317;28;44897;-93
2021/08/11 00:17:19;;;;;;;;;8.75;8.75;;;;;22.16;60.85;101453.00;4984044;28;45311;-95
2021/08/11 00:20:40;;;;;;;;;18.00;17.75;;;;;22.04;61.21;101436.97;4968398;28;44648;-94
2021/08/11 00:23:59;;;;;;;;;34.50;32.50;;;;;22.11;61.27;101453.47;4949955;28;44690;-93
2021/08/11 00:26:39;;;;;;;;;34.25;32.75;;;;;22.05;61.82;101454.94;4892213;29;44672;-93
2021/08/11 00:34:04;;;;;;;;;37.75;34.75;;;;;21.78;61.45;101421.41;4891347;29;44738;-94
2021/08/11 00:37:13;;;;;;;;;10.25;10.25;;;;;21.74;61.09;101421.81;4899406;29;44715;-94
2021/08/11 00:40:07;;;;;;;;;24.75;22.75;;;;;22.00;61.09;101465.34;4886351;29;44702;-92
2021/08/11 00:43:19;;;;;;;;;43.00;37.00;;;;;21.81;61.57;101439.19;4891979;29;45057;-95
2021/08/11 00:46:12;;;;;;;;;38.50;34.00;;;;;21.80;61.93;101441.06;4882190;29;44550;-94
2021/08/11 00:49:20;;;;;;;;;30.25;30.00;;;;;21.96;61.79;101472.06;4892103;29;44659;-93
2021/08/11 00:52:37;;;;;;;;;20.25;20.25;;;;;21.96;61.29;101468.47;4911093;29;44666;-94
2021/08/11 00:55:58;;;;;;;;;19.25;19.25;;;;;21.96;62.05;101473.91;4990963;28;44941;-93
2021/08/11 00:58:50;;;;;;;;;30.00;29.75;;;;;21.92;61.84;101476.94;5103253;28;44749;-93
2021/08/11 01:01:50;;;;;;;;;38.25;35.25;;;;;21.95;61.60;101477.63;5094793;28;44740;-94
2021/08/11 01:04:58;;;;;;;;;32.50;30.75;;;;;21.95;62.17;101480.31;5105663;27;44640;-94
2021/08/11 01:11:53;;;;;;;;;36.50;34.25;;;;;21.88;61.52;101474.66;5113527;28;44795;-94
2021/08/11 01:15:45;;;;;;;;;37.25;34.75;;;;;22.01;62.27;101491.41;5075540;28;44596;-95
2021/08/11 01:19:17;;;;;;;;;38.50;35.50;;;;;21.91;61.49;101482.50;5030134;28;44629;-94
2021/08/11 01:22:46;;;;;;;;;32.00;31.00;;;;;21.77;62.38;101444.06;4952535;28;45053;-94
2021/08/11 01:25:53;;;;;;;;;12.00;12.00;;;;;21.86;61.76;101457.69;4949764;28;44912;-93
2021/08/11 01:29:19;;;;;;;;;27.75;26.50;;;;;21.84;61.77;101462.44;4872738;29;44752;-93
2021/08/11 01:32:20;;;;;;;;;30.00;30.00;;;;;21.60;61.56;101423.16;4821754;29;44907;-95
2021/08/11 01:35:42;;;;;;;;;23.75;22.75;;;;;21.62;61.37;101437.41;4805174;29;45027;-94
2021/08/11 01:39:10;;;;;;;;;19.00;19.00;;;;;21.73;60.96;101458.84;4822995;29;44715;-94
2021/08/11 01:42:32;;;;;;;;;31.25;31.00;;;;;21.46;61.45;101419.06;4802716;29;44685;-94
2021/08/11 01:45:45;;;;;;;;;19.00;19.00;;;;;21.63;61.05;101456.19;4805615;29;44807;-94
2021/08/11 01:49:22;;;;;;;;;35.25;33.75;;;;;21.41;60.37;101422.19;4802661;29;44962;-93
2021/08/11 01:52:17;;;;;;;;;33.50;31.25;;;;;21.50;60.84;101437.56;4715526;29;44951;-95
2021/08/11 01:55:29;;;;;;;;;33.50;32.50;;;;;21.48;60.27;101438.69;4808982;29;44656;-94
2021/08/11 01:58:45;;;;;;;;;28.75;28.00;;;;;21.54;60.56;101441.69;4803434;29;44774;-92
2021/08/11 02:04:51;;;;;;;;;21.50;19.75;;;;;21.27;60.33;101415.41;4801290;29;45051;-93
2021/08/11 02:07:40;;;;;;;;;15.25;14.75;;;;;21.22;59.66;101402.31;4799045;29;44822;-93
2021/08/11 02:10:22;;;;;;;;;36.25;34.25;;;;;21.31;60.27;101413.25;4803910;29;44721;-92
2021/08/11 02:13:20;;;;;;;;;35.00;34.00;;;;;21.30;59.93;101420.53;4814307;29;45241;-93
2021/08/11 02:15:51;;;;;;;;;20.25;20.25;;;;;21.27;60.00;101423.53;4790581;29;44856;-93
2021/08/11 02:18:35;;;;;;;;;13.75;13.75;;;;;21.25;59.40;101409.28;4766504;29;44497;-92
2021/08/11 02:21:31;;;;;;;;;30.50;29.50;;;;;21.39;59.71;101435.00;4784496;29;44762;-94
2021/08/11 02:24:15;;;;;;;;;14.25;14.25;;;;;21.22;58.77;101402.31;4790892;29;45195;-92
2021/08/11 02:27:38;;;;;;;;;39.25;34.75;;;;;21.11;58.88;101397.06;4856719;29;44867;-93
2021/08/11 02:30:46;;;;;;;;;36.75;34.75;;;;;21.25;58.57;101428.22;5008969;28;44652;-92
2021/08/11 02:33:37;;;;;;;;;25.75;25.75;;;;;21.15;58.86;101418.28;4995447;28;44642;-92
2021/08/11 02:36:42;;;;;;;;;22.50;22.50;;;;;21.23;59.08;101431.06;4958804;28;45136;-92
2021/08/11 02:39:29;;;;;;;;;33.50;32.50;;;;;21.20;59.00;101414.28;4988609;28;44708;-96
2021/08/11 02:42:41;;;;;;;;;45.50;39.50;;;;;21.17;58.50;101426.25;4997149;28;44676;-92
2021/08/11 02:45:20;;;;;;;;;16.00;16.00;;;;;21.16;59.37;101422.69;5003651;28;44749;-92
2021/08/11 02:48:06;;;;;;;;;5.25;5.25;;;;;21.01;59.00;101384.41;4979726;28;45275;-94
2021/08/11 02:50:50;;;;;;;;;31.50;31.25;;;;;21.23;58.93;101427.53;5029377;28;44904;-93
2021/08/11 02:53:25;;;;;;;;;17.25;17.25;;;;;21.17;59.14;101416.25;5036317;28;44698;-92
2021/08/11 02:56:23;;;;;;;;;37.00;34.50;;;;;21.19;59.16;101415.25;4983820;28;44852;-93
2021/08/11 02:59:49;;;;;;;;;12.50;12.50;;;;;21.06;58.58;101394.78;5046620;28;45091;-93
2021/08/11 03:03:02;;;;;;;;;21.50;21.50;;;;;21.04;58.88;101400.34;4976511;28;44653;-93
2021/08/11 03:06:27;;;;;;;;;31.75;31.50;;;;;21.00;58.88;101395.38;4990550;28;44645;-92
2021/08/11 03:09:09;;;;;;;;;21.75;19.75;;;;;21.22;58.41;101423.09;4995991;28;44867;-92
2021/08/11 03:12:39;;;;;;;;;27.50;27.50;;;;;21.17;58.69;101423.53;5005478;28;45144;-94
2021/08/11 03:15:16;;;;;;;;;31.00;30.75;;;;;21.09;59.18;101399.91;4970445;28;44673;-94
2021/08/11 03:18:10;;;;;;;;;12.50;12.50;;;;;21.23;58.63;101430.22;4966448;28;44719;-93
2021/08/11 03:25:02;;;;;;;;;22.50;21.25;;;;;21.23;59.31;101435.63;4989275;28;44862;-94
2021/08/11 03:28:01;;;;;;;;;35.00;33.50;;;;;21.22;59.25;101436.59;4941320;28;44599;-94
2021/08/11 03:31:13;;;;;;;;;39.00;35.75;;;;;21.12;58.97;101420.41;4983769;28;44601;-93
2021/08/11 03:34:23;;;;;;;;;11.50;10.25;;;;;20.96;59.16;101402.91;4973610;28;44768;-92
2021/08/11 03:36:51;;;;;;;;;30.50;30.25;;;;;21.23;59.42;101446.44;4943252;28;45127;-93
2021/08/11 03:39:22;;;;;;;;;29.25;29.00;;;;;21.06;59.36;101424.53;4953562;28;44472;-92
2021/08/11 03:41:56;;;;;;;;;20.50;19.50;;;;;20.96;59.13;101411.03;4976881;28;44653;-92
2021/08/11 03:44:31;;;;;;;;;20.50;20.50;;;;;21.00;59.65;101417.84;4958689;28;44774;-93
2021/08/11 03:46:58;;;;;;;;;22.00;22.00;;;;;21.13;59.96;101452.69;4949374;28;45092;-92
2021/08/11 03:49:49;;;;;;;;;39.25;35.50;;;;;20.95;60.39;101425.56;4919279;28;44674;-93
2021/08/11 03:52:39;;;;;;;;;26.75;26.75;;;;;21.09;59.45;101461.22;4929349;28;44671;-92
2021/08/11 03:55:21;;;;;;;;;28.75;28.75;;;;;21.00;59.88;101452.13;4950874;28;44740;-93
2021/08/11 03:57:50;;;;;;;;;22.75;21.00;;;;;20.94;59.50;101433.81;4948848;28;45351;-93
2021/08/11 04:00:37;;;;;;;;;20.50;20.50;;;;;21.04;60.16;101453.53;4988052;28;44802;-93
2021/08/11 04:03:09;;;;;;;;;4.75;4.75;;;;;21.01;59.91;101449.28;5009051;28;44531;-93
2021/08/11 04:05:40;;;;;;;;;34.25;32.25;;;;;21.08;59.99;101465.81;5035621;28;44857;-93
2021/08/11 04:08:52;;;;;;;;;23.50;23.50;;;;;20.89;60.57;101431.50;5031635;28;45044;-94
2021/08/11 04:12:14;;;;;;;;;41.75;36.75;;;;;20.88;60.12;101432.50;5045423;28;44422;-93
2021/08/11 04:15:01;;;;;;;;;26.25;26.25;;;;;21.00;60.33;101436.78;4993896;28;44819;-94
2021/08/11 04:17:34;;;;;;;;;41.25;37.25;;;;;21.13;59.75;101460.81;5021885;28;44725;-92
2021/08/11 04:20:23;;;;;;;;;28.75;28.75;;;;;20.93;59.83;101438.34;5045637;28;45238;-93
2021/08/11 04:23:00;;;;;;;;;18.25;18.25;;;;;20.88;59.96;101432.50;5097383;28;44906;-94
2021/08/11 04:25:50;;;;;;;;;26.00;26.00;;;;;20.89;59.39;101431.50;5092834;28;44804;-94
2021/08/11 04:28:28;;;;;;;;;21.50;21.50;;;;;20.95;59.87;101432.78;5090012;28;44825;-94
2021/08/11 04:31:57;;;;;;;;;31.00;31.00;;;;;21.13;59.71;101465.34;5069967;28;45389;-94
2021/08/11 04:35:15;;;;;;;;;32.33;32.00;;;;;21.07;59.47;101466.78;5020838;28;44692;-94
2021/08/11 04:37:49;;;;;;;;;24.75;24.50;;;;;20.97;59.49;101455.16;4999527;28;44679;-93
2021/08/11 04:40:45;;;;;;;;;29.00;29.00;;;;;20.92;60.19;101447.44;4998502;28;44726;-93
2021/08/11 04:43:45;;;;;;;;;41.75;37.00;;;;;21.04;59.79;101472.47;5010905;28;45153;-93
2021/08/11 04:46:59;;;;;;;;;34.25;33.25;;;;;21.00;60.23;101457.53;5023530;28;44689;-94
2021/08/11 04:49:38;;;;;;;;;9.75;9.75;;;;;20.95;60.16;101452.56;5015376;28;44695;-93
2021/08/11 04:52:35;;;;;;;;;28.25;26.75;;;;;20.87;60.15;101441.56;5037784;28;44842;-93
2021/08/11 04:55:58;;;;;;;;;31.00;30.75;;;;;21.03;60.20;101471.63;5018120;28;45261;-92
2021/08/11 04:59:11;;;;;;;;;6.50;6.50;;;;;20.96;60.37;101462.38;4991505;28;44825;-91
2021/08/11 05:02:04;;;;;;;;;22.50;22.50;;;;;21.06;59.73;101481.31;5030883;28;44629;-92
2021/08/11 05:04:59;;;;;;;;;36.00;34.33;;;;;20.85;60.45;101425.50;5035967;28;44657;-92
2021/08/11 05:08:02;;;;;;;;;36.50;34.00;;;;;21.10;60.13;101480.03;5035664;28;45082;-93
2021/08/11 05:11:22;;;;;;;;;42.25;36.50;;;;;20.89;60.09;101454.00;5076777;28;45089;-93
2021/08/11 05:14:31;;;;;;;;;22.75;21.75;;;;;20.92;60.67;101463.66;5070156;27;44772;-91
2021/08/11 05:17:33;;;;;;;;;33.75;33.00;;;;;21.01;60.30;101484.44;5096484;27;44657;-93
2021/08/11 05:20:21;;;;;;;;;;;;;;;;;;;;;
2021/08/11 05:26:45;;;;;;;;;22.50;22.50;;;;;21.05;60.96;101487.72;4933500;28;44616;-94
2021/08/11 05:29:44;;;;;;;;;50.25;42.50;;;;;21.12;60.54;101501.50;4945866;28;44704;-92
2021/08/11 05:32:25;;;;;;;;;33.25;32.50;;;;;21.15;60.82;101503.94;4908116;28;45151;-93
2021/08/11 05:35:32;;;;;;;;;23.25;22.00;;;;;21.14;60.83;101504.94;4920042;29;44850;-93
2021/08/11 05:38:18;;;;;;;;;45.25;39.00;;;;;21.01;60.60;101472.78;4892126;28;44687;-94
2021/08/11 05:41:18;;;;;;;;;24.75;24.75;;;;;21.18;60.30;101506.34;4933066;28;44900;-94
2021/08/11 05:48:10;;;;;;;;;36.75;34.75;;;;;21.25;60.96;101507.50;4895594;29;44766;-93
2021/08/11 05:51:23;;;;;;;;;24.00;24.00;;;;;21.11;61.25;101478.19;4841807;29;44670;-94
2021/08/11 05:54:13;;;;;;;;;35.75;33.50;;;;;21.37;60.82;101518.16;4838340;29;44676;-94
2021/08/11 05:56:42;;;;;;;;;27.75;27.75;;;;;21.35;61.05;101504.78;4776686;29;45052;-94
2021/08/11 06:00:09;;;;;;;;;31.50;29.75;;;;;21.45;60.66;101521.00;4821686;29;45113;-91
2021/08/11 06:03:12;;;;;;;;;34.75;33.50;;;;;21.39;61.09;101492.66;4820985;29;44677;-95
2021/08/11 06:06:04;;;;;;;;;26.50;26.50;;;;;21.58;60.66;101519.84;4817951;29;44891;-93
2021/08/11 06:08:34;;;;;;;;;19.00;19.00;;;;;21.63;61.04;101526.53;4880420;29;45524;-93
2021/08/11 06:14:43;;;;;;;;;34.75;33.25;;;;;21.70;60.98;101532.22;4873495;29;44736;-93
2021/08/11 06:17:33;;;;;;;;;34.00;32.75;;;;;21.78;60.71;101534.25;4827949;29;44704;-93
2021/08/11 06:20:03;;;;;;;;;27.75;25.75;;;;;21.58;60.59;101511.75;4874598;29;45034;-93
2021/08/11 06:22:34;;;;;;;;;27.00;27.00;;;;;21.76;60.70;101528.97;4878309;29;44674;-93
2021/08/11 06:25:27;;;;;;;;;38.75;35.75;;;;;21.77;60.72;101529.81;4902088;29;44793;-94
2021/08/11 06:28:12;;;;;;;;;28.50;28.50;;;;;21.63;60.60;101498.63;4916389;29;44833;-92
2021/08/11 06:31:46;;;;;;;;;;;;;;;;;;;;;
2021/08/11 06:34:30;;;;;;;;;36.50;34.00;;;;;21.89;60.62;101544.03;4850268;29;44830;-94
2021/08/11 06:37:22;;;;;;;;;35.25;32.75;;;;;21.73;60.22;101517.53;4889410;29;44731;-94
2021/08/11 06:40:35;;;;;;;;;;;;;;;;;;;;;
2021/08/11 06:44:10;;;;;;;;;31.75;31.25;;;;;21.76;60.87;101531.69;4865245;29;45515;-93
2021/08/11 06:51:01;;;;;;;;;34.75;33.25;;;;;21.59;60.87;101514.31;4899852;28;44786;-93
2021/08/11 06:54:25;;;;;;;;;36.00;32.25;;;;;21.79;60.57;101547.63;4927156;29;44667;-93
2021/08/11 07:01:42;;;;;;;;;39.25;35.00;;;;;21.63;60.35;101517.56;4875287;29;44915;-95
2021/08/11 07:08:14;;;;;;;;;30.00;29.75;;;;;21.60;60.46;101512.44;4819870;29;44819;-96
2021/08/11 07:22:22;;;;;;;;;24.25;22.25;;;;;21.78;59.75;101507.19;5256877;22;45132;-92
2021/08/11 07:36:00;;;;;;;;;24.25;24.25;;;;;22.04;56.37;101558.78;5920345;22;45825;-94
2021/08/11 08:15:37;;;;;;;;;33.80;30.20;;;;;22.34;54.66;101498.25;4986245;28;46396;-95
2021/08/11 08:18:03;;;;;;;;;32.40;28.80;;;;;22.38;55.24;101505.06;4960061;28;45141;-93
2021/08/11 08:20:30;;;;;;;;;37.40;32.80;;;;;22.59;54.14;101531.97;4940788;28;44824;-92
2021/08/11 08:22:56;;;;;;;;;30.80;26.60;;;;;22.63;54.60;101529.78;4937723;28;44751;-93
2021/08/11 08:25:23;;;;;;;;;70.67;63.50;;;;;22.58;54.35;101519.41;4941106;28;44935;-92
2021/08/11 08:28:02;;;;;;;;;29.60;26.60;;;;;22.59;53.70;101522.97;4964420;28;45195;-95
2021/08/11 08:30:31;;;;;;;;;35.40;31.60;;;;;22.71;54.49;101550.72;4946052;28;44835;-93
2021/08/11 08:33:10;;;;;;;;;35.50;29.25;;;;;22.61;54.71;101523.69;4974313;28;44784;-91
2021/08/11 08:35:55;;;;;;;;;35.00;31.20;;;;;22.73;55.07;101533.28;4973535;28;44848;-92
2021/08/11 08:38:29;;;;;;;;;32.00;27.00;;;;;22.83;53.72;101554.09;4962981;28;46798;-92
2021/08/11 08:40:56;;;;;;;;;38.20;33.80;;;;;22.78;53.69;101547.22;4971876;28;44819;-92
2021/08/11 08:47:01;;;;;;;;;33.25;28.00;;;;;22.64;53.54;101529.63;5069414;22;44810;-92
2021/08/11 08:49:33;;;;;;;;;39.75;34.50;;;;;22.42;53.41;101501.91;4990248;28;45180;-92
2021/08/11 08:52:11;;;;;;;;;44.60;39.40;;;;;22.56;54.42;101508.72;4999701;28;44823;-94
2021/08/11 08:55:12;;;;;;;;;45.00;39.20;;;;;22.71;53.89;101532.59;5005684;28;44737;-92
2021/08/11 08:58:06;;;;;;;;;33.25;28.50;;;;;22.61;53.99;101500.13;5011410;28;44931;-90
2021/08/11 09:00:43;;;;;;;;;45.75;39.50;;;;;22.91;54.22;101546.88;5006864;28;45295;-90
2021/08/11 09:03:23;;;;;;;;;87.50;84.33;;;;;22.62;54.41;101482.03;4981595;28;44895;-91
2021/08/11 09:05:57;;;;;;;;;85.33;81.33;;;;;22.85;54.53;101511.38;5027846;28;44883;-91
2021/08/11 09:08:33;;;;;;;;;84.17;80.17;;;;;23.18;54.49;101544.25;5012043;28;44783;-91
2021/08/11 09:11:01;;;;;;;;;85.83;82.00;;;;;23.06;54.40;101508.38;4996077;28;45329;-93
2021/08/11 09:13:34;;;;;;;;;107.40;107.40;;;;;23.17;54.05;101505.44;5011530;28;44956;-92
2021/08/11 09:16:27;;;;;;;;;104.60;104.60;;;;;23.12;53.84;101480.63;5028697;28;44724;-91
2021/08/11 09:19:08;;;;;;;;;101.75;101.25;;;;;23.39;54.19;101508.69;4995153;28;44911;-92
2021/08/11 09:21:41;;;;;;;;;109.25;109.25;;;;;23.48;52.91;101511.50;5092489;23;45036;-94
2021/08/11 09:24:46;;;;;;;;;112.80;112.80;;;;;23.68;52.60;101523.81;5051012;28;44929;-95
2021/08/11 09:27:54;;;;;;;;;103.20;103.20;;;;;23.86;53.09;101532.97;5049398;28;44809;-90
2021/08/11 09:30:28;;;;;;;;;100.75;100.75;;;;;23.78;52.96;101510.19;5068824;28;44754;-94
2021/08/11 09:33:40;;;;;;;;;98.60;98.60;;;;;23.69;51.97;101495.69;5054190;28;45242;-91
2021/08/11 09:36:35;;;;;;;;;110.25;109.00;;;;;23.80;52.35;101515.44;5068278;28;44778;-91
2021/08/11 09:39:07;;;;;;;;;102.80;102.80;;;;;23.58;51.72;101501.41;5066817;28;44774;-96
2021/08/11 09:42:18;;;;;;;;;104.50;104.50;;;;;23.63;52.23;101536.19;5064055;28;44873;-93
2021/08/11 09:45:18;;;;;;;;;86.17;83.00;;;;;23.45;53.16;101537.91;5033731;28;45663;-94
2021/08/11 09:48:08;;;;;;;;;70.50;64.50;;;;;23.15;52.80;101503.88;5051167;28;44896;-92
2021/08/11 09:51:08;;;;;;;;;77.33;70.17;;;;;23.28;53.40;101530.59;5066197;28;44778;-93
2021/08/11 09:53:42;;;;;;;;;79.17;73.67;;;;;23.01;53.10;101494.44;5026923;28;44917;-92
